Time;durP1;ratioP1;P1;durP2;ratioP2;P2;SDS_P1;SDS_P2;PMS_P1;PMS_P2;Temp;Humidity;BMP_temperature;BMP_pressure;BME280_temperature;BME280_humidity;BME280_pressure;Samples;Min_cycle;Max_cycle;Signal;HPM_P1;HPM_P2
2022/04/08 00:05:16;;;;;;;0.60;0.38;;;10.60;68.30;;;;;;20720550;28;20461;-79
2022/04/08 00:15:16;;;;;;;1.85;0.32;;;10.60;68.20;;;;;;20704204;28;20526;-80
2022/04/08 00:25:17;;;;;;;0.40;0.13;;;10.60;68.20;;;;;;20719851;28;20034;-78
2022/04/08 00:35:18;;;;;;;1.95;0.52;;;10.60;68.20;;;;;;20716909;28;20045;-79
2022/04/08 00:45:18;;;;;;;2.58;0.47;;;10.60;68.10;;;;;;20684997;28;20081;-81
2022/04/08 00:55:19;;;;;;;2.72;0.60;;;10.60;67.90;;;;;;20717881;28;20476;-81
2022/04/08 01:05:20;;;;;;;1.02;0.50;;;10.50;67.80;;;;;;20700378;28;20025;-79
2022/04/08 01:15:21;;;;;;;0.77;0.30;;;10.60;67.80;;;;;;20731079;28;20046;-78
2022/04/08 01:25:22;;;;;;;1.25;0.25;;;10.50;67.80;;;;;;20698652;28;20050;-79
2022/04/08 01:35:22;;;;;;;1.80;0.30;;;10.50;67.80;;;;;;20697830;28;20125;-78
2022/04/08 01:45:24;;;;;;;0.98;0.40;;;10.50;67.90;;;;;;20697556;28;20104;-79
2022/04/08 01:55:24;;;;;;;2.05;0.40;;;10.50;67.90;;;;;;20698339;28;20038;-79
2022/04/08 02:05:25;;;;;;;0.68;0.30;;;10.50;68.10;;;;;;20714551;28;20542;-79
2022/04/08 02:15:28;;;;;;;4.43;0.57;;;10.50;68.10;;;;;;20712245;28;20034;-78
2022/04/08 02:25:29;;;;;;;3.03;0.30;;;10.50;68.20;;;;;;21064434;23;20046;-82
2022/04/08 02:35:30;;;;;;;0.55;0.22;;;10.50;68.20;;;;;;20728242;28;20074;-78
2022/04/08 02:45:31;;;;;;;3.90;0.30;;;10.40;68.20;;;;;;20727432;28;20392;-79
2022/04/08 02:55:32;;;;;;;1.50;1.40;;;10.40;68.30;;;;;;20718566;28;20135;-81
2022/04/08 03:05:32;;;;;;;3.47;0.32;;;10.40;68.30;;;;;;20726098;28;20358;-80
2022/04/08 03:15:33;;;;;;;0.77;0.50;;;10.40;68.30;;;;;;20723952;28;20057;-79
2022/04/08 03:25:34;;;;;;;0.52;0.25;;;10.50;68.40;;;;;;20723923;28;20304;-80
2022/04/08 03:35:34;;;;;;;3.20;0.50;;;10.40;68.40;;;;;;20740001;28;20539;-79
2022/04/08 03:45:35;;;;;;;5.00;0.60;;;10.40;68.40;;;;;;20723163;28;20065;-79
2022/04/08 03:55:36;;;;;;;2.22;0.52;;;10.40;68.30;;;;;;20721962;28;20036;-80
2022/04/08 04:05:36;;;;;;;1.07;0.20;;;10.40;68.30;;;;;;20719074;28;20065;-80
2022/04/08 04:15:37;;;;;;;2.05;0.63;;;10.40;68.30;;;;;;20719589;28;20300;-80
2022/04/08 04:25:38;;;;;;;1.55;0.30;;;10.40;68.20;;;;;;20719693;28;20037;-79
2022/04/08 04:35:38;;;;;;;0.05;0.05;;;10.40;68.20;;;;;;20718017;28;20036;-80
2022/04/08 04:45:39;;;;;;;0.75;0.20;;;10.40;68.20;;;;;;20718317;28;20476;-80
2022/04/08 04:55:40;;;;;;;1.65;0.40;;;10.40;68.20;;;;;;20717846;28;20041;-79
2022/04/08 05:05:40;;;;;;;0.60;0.30;;;10.30;68.20;;;;;;20716356;28;20455;-78
2022/04/08 05:15:42;;;;;;;0.85;0.28;;;10.30;68.10;;;;;;20731816;28;20034;-79
2022/04/08 05:25:43;;;;;;;1.42;0.60;;;10.30;68.10;;;;;;20699904;28;20042;-79
2022/04/08 05:35:43;;;;;;;1.30;0.30;;;10.30;68.00;;;;;;20698256;28;20380;-78
2022/04/08 05:45:44;;;;;;;0.08;0.08;;;10.30;67.90;;;;;;20713951;28;20500;-78
2022/04/08 05:55:45;;;;;;;0.50;0.30;;;10.30;67.80;;;;;;20746542;28;20089;-80
2022/04/08 06:05:46;;;;;;;0.50;0.30;;;10.30;67.70;;;;;;20728811;28;20034;-78
2022/04/08 06:15:48;;;;;;;4.05;0.60;;;10.30;67.60;;;;;;20696344;28;20092;-78
2022/04/08 06:25:49;;;;;;;1.08;0.47;;;10.30;67.50;;;;;;20729599;28;20408;-79
2022/04/08 06:35:49;;;;;;;0.30;0.20;;;10.30;67.40;;;;;;20727419;28;20030;-79
2022/04/08 06:45:50;;;;;;;0.47;0.20;;;10.30;67.30;;;;;;20727699;28;20716;-79
2022/04/08 06:55:51;;;;;;;2.13;0.57;;;10.20;67.00;;;;;;20726548;28;20464;-80
2022/04/08 07:05:51;;;;;;;0.73;0.30;;;10.20;67.00;;;;;;20742684;28;20038;-79
2022/04/08 07:15:52;;;;;;;0.70;0.22;;;10.20;66.90;;;;;;20725375;28;20066;-78
2022/04/08 07:25:52;;;;;;;1.38;0.43;;;10.20;66.80;;;;;;20724042;28;20033;-78
2022/04/08 07:35:53;;;;;;;0.98;0.40;;;10.20;66.60;;;;;;20739173;28;20030;-77
2022/04/08 07:45:53;;;;;;;0.35;0.28;;;10.20;66.40;;;;;;20705849;28;20120;-78
2022/04/08 07:55:55;;;;;;;3.35;0.60;;;10.20;67.00;;;;;;20721217;28;20038;-80
2022/04/08 08:05:56;;;;;;;2.92;0.75;;;10.20;66.20;;;;;;20736966;28;20476;-78
2022/04/08 08:15:56;;;;;;;2.20;0.30;;;10.20;66.20;;;;;;20720524;28;20079;-79
2022/04/08 08:25:57;;;;;;;0.82;0.40;;;10.20;66.10;;;;;;20703169;28;20064;-80
2022/04/08 08:35:58;;;;;;;0.88;0.40;;;10.20;66.00;;;;;;20718862;28;20125;-79
2022/04/08 08:45:58;;;;;;;3.53;0.50;;;10.20;65.90;;;;;;20717632;28;20620;-80
2022/04/08 08:56:00;;;;;;;1.88;0.55;;;10.20;65.80;;;;;;20733666;28;20033;-78
2022/04/08 09:06:05;;;;;;;4.90;0.43;;;10.20;65.60;;;;;;20715997;28;20068;-79
2022/04/08 09:16:06;;;;;;;4.05;1.05;;;10.20;65.50;;;;;;20699908;28;20423;-79
2022/04/08 09:26:09;;;;;;;0.77;0.40;;;10.20;65.40;;;;;;20715762;28;20038;-81
2022/04/08 09:36:09;;;;;;;0.95;0.47;;;10.20;65.30;;;;;;20730487;28;20034;-79
2022/04/08 09:46:17;;;;;;;1.30;0.38;;;10.20;65.30;;;;;;20713738;28;20500;-79
2022/04/08 09:56:19;;;;;;;1.65;0.75;;;10.20;65.30;;;;;;20697117;28;20030;-80
2022/04/08 10:06:21;;;;;;;2.83;0.70;;;10.20;65.30;;;;;;20724460;28;20040;-80
2022/04/08 10:16:21;;;;;;;1.88;0.60;;;10.20;65.30;;;;;;20729131;28;20037;-79
2022/04/08 10:26:26;;;;;;;3.17;0.70;;;10.20;65.20;;;;;;20728143;28;20397;-80
2022/04/08 10:36:33;;;;;;;2.33;1.15;;;10.20;65.20;;;;;;20726999;28;20034;-79
2022/04/08 10:46:34;;;;;;;0.38;0.20;;;10.20;65.20;;;;;;20708990;28;20061;-79
2022/04/08 10:56:35;;;;;;;3.80;0.50;;;10.20;65.30;;;;;;20725198;28;20353;-74
2022/04/08 11:06:36;;;;;;;1.63;0.57;;;10.20;65.30;;;;;;20678698;28;20284;-85
2022/04/08 11:16:37;;;;;;;2.88;0.65;;;10.20;65.20;;;;;;20720199;28;20056;-80
2022/04/08 11:26:49;;;;;;;0.88;0.45;;;10.20;65.20;;;;;;20703929;28;20455;-80
2022/04/08 11:36:51;;;;;;;2.00;0.73;;;10.20;65.10;;;;;;20733757;28;20540;-76
2022/04/08 11:46:51;;;;;;;3.83;0.38;;;10.20;65.10;;;;;;20733332;28;20064;-78
2022/04/08 11:56:53;;;;;;;4.18;0.70;;;10.20;65.10;;;;;;20716975;28;20030;-75
2022/04/08 12:06:53;;;;;;;2.17;0.68;;;10.20;65.20;;;;;;20699700;28;20040;-79
2022/04/08 12:17:01;;;;;;;1.60;0.43;;;10.20;65.20;;;;;;20718790;28;20485;-75
2022/04/08 12:27:03;;;;;;;2.88;0.50;;;10.20;65.30;;;;;;20703159;28;20720;-75
2022/04/08 12:37:04;;;;;;;4.22;0.52;;;10.20;65.10;;;;;;20695013;28;20527;-73
2022/04/08 12:47:04;;;;;;;4.63;0.80;;;10.20;65.00;;;;;;20680287;28;20048;-77
2022/04/08 12:57:06;;;;;;;4.30;0.60;;;10.20;64.80;;;;;;20693224;28;20084;-76
2022/04/08 13:07:07;;;;;;;0.70;0.52;;;10.20;64.40;;;;;;20710577;28;20048;-76
2022/04/08 13:17:07;;;;;;;1.92;0.65;;;10.20;64.00;;;;;;20693509;28;20029;-73
2022/04/08 13:27:08;;;;;;;3.45;0.80;;;10.20;63.70;;;;;;20692673;28;20042;-73
2022/04/08 13:37:10;;;;;;;5.28;0.70;;;10.20;63.30;;;;;;20724528;28;20053;-74
2022/04/08 13:47:10;;;;;;;1.60;0.65;;;10.20;62.80;;;;;;20704831;28;20365;-77
2022/04/08 13:57:11;;;;;;;1.42;0.70;;;10.30;62.40;;;;;;20706440;28;20542;-77
2022/04/08 14:07:11;;;;;;;6.35;0.60;;;10.20;62.00;;;;;;20691374;28;20080;-78
2022/04/08 14:17:12;;;;;;;2.10;0.60;;;10.30;62.00;;;;;;20690952;28;20041;-77
2022/04/08 14:27:13;;;;;;;2.25;0.75;;;10.30;61.90;;;;;;20722597;28;20767;-78
2022/04/08 14:37:13;;;;;;;4.63;0.68;;;10.30;61.90;;;;;;20707563;28;20117;-77
2022/04/08 14:47:14;;;;;;;1.63;0.70;;;10.30;62.00;;;;;;20674282;28;20030;-81
2022/04/08 14:57:14;;;;;;;5.57;0.60;;;10.30;62.00;;;;;;20738903;28;20042;-78
2022/04/08 15:07:16;;;;;;;4.70;0.90;;;10.30;62.00;;;;;;20703666;28;20038;-74
2022/04/08 15:17:16;;;;;;;4.75;0.90;;;10.30;62.60;;;;;;20700348;28;20049;-78
2022/04/08 15:27:17;;;;;;;3.30;0.55;;;10.30;61.90;;;;;;20706511;28;20030;-79
2022/04/08 15:37:18;;;;;;;3.63;0.63;;;10.30;62.10;;;;;;20691562;28;20048;-83
2022/04/08 15:47:18;;;;;;;2.75;1.00;;;10.30;62.30;;;;;;20722482;28;20116;-83
2022/04/08 15:57:19;;;;;;;3.72;0.80;;;10.30;62.70;;;;;;20704680;28;20057;-82
2022/04/08 16:07:19;;;;;;;1.23;0.47;;;10.30;63.10;;;;;;20712840;28;20038;-77
2022/04/08 16:17:20;;;;;;;1.77;0.73;;;10.30;63.80;;;;;;20679230;28;20038;-77
2022/04/08 16:27:20;;;;;;;2.38;0.80;;;10.30;63.10;;;;;;20706521;28;20033;-79
2022/04/08 16:37:22;;;;;;;3.65;1.10;;;10.30;63.10;;;;;;20732600;28;20113;-78
2022/04/08 16:47:23;;;;;;;1.48;0.47;;;10.30;63.10;;;;;;20717788;28;20030;-77
2022/04/08 16:57:24;;;;;;;3.38;0.50;;;10.30;63.10;;;;;;20717396;28;20053;-78
2022/04/08 17:07:24;;;;;;;1.42;0.73;;;10.30;63.20;;;;;;20671988;28;20038;-77
2022/04/08 17:17:26;;;;;;;1.23;0.50;;;10.30;63.30;;;;;;20714595;28;20042;-79
2022/04/08 17:27:27;;;;;;;1.63;0.68;;;10.30;63.50;;;;;;20736649;28;20156;-75
2022/04/08 17:37:27;;;;;;;1.25;0.65;;;10.30;63.70;;;;;;20710499;28;20128;-77
2022/04/08 17:47:28;;;;;;;3.50;0.80;;;10.30;63.80;;;;;;20727582;28;20036;-78
2022/04/08 17:57:28;;;;;;;0.90;0.55;;;10.20;64.00;;;;;;20710638;28;20692;-81
2022/04/08 18:07:29;;;;;;;3.35;0.80;;;10.20;64.10;;;;;;20693489;28;20411;-80
2022/04/08 18:17:30;;;;;;;1.83;0.50;;;10.20;64.30;;;;;;20728668;28;20069;-78
2022/04/08 18:27:30;;;;;;;0.85;0.40;;;10.20;64.40;;;;;;20715789;28;20048;-79
2022/04/08 18:37:31;;;;;;;0.50;0.38;;;10.20;64.60;;;;;;20744429;28;20034;-79
2022/04/08 18:47:32;;;;;;;2.65;1.67;;;10.20;64.70;;;;;;20725665;28;20030;-80
2022/04/08 18:57:32;;;;;;;2.15;0.60;;;10.20;64.80;;;;;;20742059;28;20069;-80
2022/04/08 19:07:33;;;;;;;1.23;0.60;;;10.20;64.90;;;;;;20726979;28;20036;-79
2022/04/08 19:17:33;;;;;;;1.40;0.65;;;10.20;65.00;;;;;;20741507;28;20037;-80
2022/04/08 19:27:34;;;;;;;0.75;0.43;;;10.20;65.10;;;;;;20725387;28;20069;-79
2022/04/08 19:37:36;;;;;;;0.82;0.50;;;10.20;65.10;;;;;;20708458;28;20549;-80
2022/04/08 19:47:37;;;;;;;0.32;0.22;;;10.20;65.20;;;;;;20739399;28;20034;-79
2022/04/08 19:57:38;;;;;;;2.28;0.60;;;10.20;65.20;;;;;;20706440;28;20055;-79
2022/04/08 20:07:38;;;;;;;1.65;0.38;;;10.20;65.20;;;;;;20722651;28;20069;-80
2022/04/08 20:17:39;;;;;;;0.97;0.50;;;10.20;65.30;;;;;;20703480;28;20045;-80
2022/04/08 20:27:40;;;;;;;1.03;0.60;;;10.10;65.20;;;;;;20737186;28;20299;-79
2022/04/08 20:37:40;;;;;;;2.75;0.57;;;10.10;65.20;;;;;;20736936;28;20431;-80
2022/04/08 20:47:41;;;;;;;0.57;0.30;;;10.10;65.20;;;;;;20702884;28;20034;-80
2022/04/08 20:57:42;;;;;;;1.38;0.60;;;10.10;65.20;;;;;;20702586;28;20041;-79
2022/04/08 21:07:42;;;;;;;1.30;0.57;;;10.10;65.20;;;;;;20719063;28;20037;-79
2022/04/08 21:17:43;;;;;;;0.32;0.30;;;10.10;65.20;;;;;;20717380;28;20370;-79
2022/04/08 21:27:43;;;;;;;0.70;0.63;;;10.10;65.30;;;;;;20734568;28;20038;-79
2022/04/08 21:37:44;;;;;;;0.70;0.38;;;10.10;65.30;;;;;;20715975;28;20296;-78
2022/04/08 21:47:48;;;;;;;0.38;0.30;;;10.10;65.30;;;;;;20716636;28;20045;-79
2022/04/08 21:57:48;;;;;;;1.38;0.65;;;10.10;65.30;;;;;;20715078;28;20045;-78
2022/04/08 22:07:49;;;;;;;2.20;0.80;;;10.10;65.30;;;;;;20732051;28;20460;-79
2022/04/08 22:17:50;;;;;;;1.63;0.60;;;10.10;65.30;;;;;;20714075;28;20328;-81
2022/04/08 22:27:51;;;;;;;1.25;0.82;;;10.10;65.30;;;;;;20714625;28;20065;-81
2022/04/08 22:37:51;;;;;;;3.83;0.63;;;10.10;65.30;;;;;;20712218;28;20045;-78
2022/04/08 22:47:52;;;;;;;1.38;0.40;;;10.10;65.30;;;;;;20713014;28;20038;-80
2022/04/08 22:57:53;;;;;;;1.42;0.68;;;10.10;65.30;;;;;;20712619;28;20112;-81
2022/04/08 23:07:55;;;;;;;2.80;0.73;;;10.00;65.30;;;;;;20713357;28;20053;-79
2022/04/08 23:17:56;;;;;;;1.48;0.80;;;10.00;65.30;;;;;;20727079;28;20419;-79
2022/04/08 23:27:56;;;;;;;0.90;0.60;;;10.10;65.40;;;;;;20742570;28;20120;-80
2022/04/08 23:37:57;;;;;;;1.35;0.70;;;10.00;65.30;;;;;;20741300;28;20038;-83
2022/04/08 23:47:57;;;;;;;2.33;0.80;;;10.00;65.30;;;;;;20740691;28;20026;-85
2022/04/08 23:57:58;;;;;;;1.90;0.75;;;10.00;65.30;;;;;;20723364;28;20699;-80
